Time;durP1;ratioP1;P1;durP2;ratioP2;P2;SDS_P1;SDS_P2;PMS_P1;PMS_P2;Temp;Humidity;BMP_temperature;BMP_pressure;BME280_temperature;BME280_humidity;BME280_pressure;Samples;Min_cycle;Max_cycle;Signal;HPM_P1;HPM_P2
2022/08/31 00:04:01;;;;;;;0.00;0.00;;;15.90;99.90;;;;;;5018646;28;20061;-82
2022/08/31 00:06:30;;;;;;;0.08;0.08;;;15.80;99.90;;;;;;5014669;28;20096;-81
2022/08/31 00:08:57;;;;;;;0.00;0.00;;;15.80;99.90;;;;;;5024858;28;20045;-81
2022/08/31 00:11:29;;;;;;;0.10;0.10;;;15.80;99.90;;;;;;4994426;28;20072;-81
2022/08/31 00:14:04;;;;;;;0.00;0.00;;;15.70;99.90;;;;;;5026773;28;20122;-83
2022/08/31 00:16:34;;;;;;;0.00;0.00;;;15.70;99.90;;;;;;5010560;28;20400;-83
2022/08/31 00:19:01;;;;;;;0.00;0.00;;;15.60;99.90;;;;;;5010501;28;20073;-81
2022/08/31 00:21:28;;;;;;;0.00;0.00;;;15.60;99.90;;;;;;5026276;28;20483;-83
2022/08/31 00:23:55;;;;;;;0.00;0.00;;;15.60;99.90;;;;;;4994581;28;20049;-81
2022/08/31 00:26:23;;;;;;;0.10;0.10;;;15.50;99.90;;;;;;5008467;28;20506;-81
2022/08/31 00:28:50;;;;;;;0.10;0.10;;;15.40;99.90;;;;;;5029912;28;20038;-83
2022/08/31 00:31:17;;;;;;;0.00;0.00;;;15.40;99.90;;;;;;5029447;28;20042;-82
2022/08/31 00:33:45;;;;;;;0.10;0.10;;;15.40;99.90;;;;;;4997451;28;20042;-80
2022/08/31 00:36:13;;;;;;;0.08;0.08;;;15.40;99.90;;;;;;5013124;28;20042;-81
2022/08/31 00:38:40;;;;;;;0.10;0.10;;;15.30;99.90;;;;;;5009848;28;20038;-83
2022/08/31 00:41:09;;;;;;;0.28;0.20;;;15.30;99.90;;;;;;5027127;28;20492;-83
2022/08/31 00:43:54;;;;;;;0.08;0.08;;;15.30;99.90;;;;;;5014358;28;20034;-83
2022/08/31 00:46:34;;;;;;;0.00;0.00;;;15.20;99.90;;;;;;5043438;28;20046;-81
2022/08/31 00:49:03;;;;;;;0.30;0.10;;;15.20;99.90;;;;;;5033505;28;20518;-83
2022/08/31 00:51:35;;;;;;;0.00;0.00;;;15.10;99.90;;;;;;5029939;28;20046;-83
2022/08/31 00:54:04;;;;;;;0.00;0.00;;;15.10;99.90;;;;;;5014418;28;20046;-82
2022/08/31 00:56:34;;;;;;;0.00;0.00;;;15.00;99.90;;;;;;5013725;28;20057;-83
2022/08/31 00:59:01;;;;;;;0.15;0.10;;;15.00;99.90;;;;;;5029732;28;20144;-83
2022/08/31 01:01:29;;;;;;;0.00;0.00;;;14.90;99.90;;;;;;4997387;28;20038;-83
2022/08/31 01:03:57;;;;;;;0.10;0.10;;;14.90;99.90;;;;;;4997608;28;20411;-82
2022/08/31 01:06:25;;;;;;;0.00;0.00;;;14.80;99.90;;;;;;5003115;28;20065;-83
2022/08/31 01:08:56;;;;;;;0.10;0.10;;;14.80;99.90;;;;;;5049471;28;20041;-82
2022/08/31 01:11:23;;;;;;;0.10;0.10;;;14.80;99.90;;;;;;5034380;28;20046;-82
2022/08/31 01:13:50;;;;;;;0.10;0.10;;;14.70;99.90;;;;;;4997645;28;20050;-82
2022/08/31 01:16:23;;;;;;;0.20;0.10;;;14.60;99.90;;;;;;5002889;28;20044;-82
2022/08/31 01:18:52;;;;;;;0.08;0.08;;;14.60;99.90;;;;;;5039325;28;20045;-82
2022/08/31 01:21:27;;;;;;;0.00;0.00;;;14.50;99.90;;;;;;5013189;28;20035;-82
2022/08/31 01:23:57;;;;;;;0.00;0.00;;;14.50;99.90;;;;;;5048603;28;20096;-82
2022/08/31 01:26:26;;;;;;;0.08;0.08;;;14.50;99.90;;;;;;5032389;28;20571;-82
2022/08/31 01:28:58;;;;;;;0.00;0.00;;;14.40;99.90;;;;;;5017228;28;20046;-81
2022/08/31 01:31:41;;;;;;;0.00;0.00;;;14.40;99.90;;;;;;5032848;28;20100;-81
2022/08/31 01:34:08;;;;;;;0.00;0.00;;;14.30;99.90;;;;;;5049421;28;20054;-82
2022/08/31 01:36:37;;;;;;;0.00;0.00;;;14.20;99.90;;;;;;5029009;28;20042;-82
2022/08/31 01:39:06;;;;;;;0.10;0.10;;;14.20;99.90;;;;;;5013116;28;20038;-82
2022/08/31 01:41:33;;;;;;;0.00;0.00;;;14.20;99.90;;;;;;5021917;28;20504;-82
2022/08/31 01:43:59;;;;;;;0.00;0.00;;;14.10;99.90;;;;;;4996984;28;20044;-82
2022/08/31 01:46:26;;;;;;;0.00;0.00;;;14.10;99.90;;;;;;4988754;28;20046;-82
2022/08/31 01:48:53;;;;;;;0.00;0.00;;;14.00;99.90;;;;;;5048670;28;20406;-82
2022/08/31 01:51:20;;;;;;;0.00;0.00;;;14.00;99.90;;;;;;4999737;28;20049;-82
2022/08/31 01:53:50;;;;;;;0.00;0.00;;;14.00;99.90;;;;;;5016162;28;20033;-82
2022/08/31 01:56:20;;;;;;;0.00;0.00;;;14.00;99.90;;;;;;5016330;28;20056;-82
2022/08/31 01:58:47;;;;;;;0.03;0.03;;;13.90;99.90;;;;;;5048986;28;20042;-81
2022/08/31 02:01:14;;;;;;;0.13;0.03;;;13.90;99.90;;;;;;5013054;28;20499;-83
2022/08/31 02:03:41;;;;;;;0.00;0.00;;;13.90;99.90;;;;;;5012370;28;20543;-81
2022/08/31 02:06:09;;;;;;;0.00;0.00;;;13.90;99.90;;;;;;4996866;28;20133;-81
2022/08/31 02:08:36;;;;;;;0.08;0.08;;;13.80;99.90;;;;;;4997046;28;20125;-81
2022/08/31 02:11:06;;;;;;;0.20;0.05;;;13.80;99.90;;;;;;5024756;28;20034;-83
2022/08/31 02:13:34;;;;;;;0.22;0.10;;;13.80;99.90;;;;;;5012558;28;20034;-82
2022/08/31 02:16:01;;;;;;;0.15;0.15;;;13.80;99.90;;;;;;5012580;28;20419;-82
2022/08/31 02:18:28;;;;;;;0.03;0.03;;;13.70;99.90;;;;;;5012326;28;20562;-83
2022/08/31 02:20:55;;;;;;;0.00;0.00;;;13.70;99.90;;;;;;5022025;28;20125;-82
2022/08/31 02:23:22;;;;;;;0.10;0.10;;;13.70;99.90;;;;;;5028401;28;20491;-82
2022/08/31 02:25:49;;;;;;;0.00;0.00;;;13.60;99.90;;;;;;5028592;28;20038;-82
2022/08/31 02:28:17;;;;;;;0.10;0.00;;;13.50;99.90;;;;;;5025889;28;20586;-82
2022/08/31 02:30:45;;;;;;;0.00;0.00;;;13.50;99.90;;;;;;5015542;28;20045;-82
2022/08/31 02:33:12;;;;;;;0.05;0.05;;;13.50;99.90;;;;;;5031625;28;20041;-82
2022/08/31 02:35:39;;;;;;;0.05;0.00;;;13.40;99.90;;;;;;5015531;28;20053;-82
2022/08/31 02:38:06;;;;;;;0.03;0.03;;;13.40;99.90;;;;;;5015572;28;20125;-81
2022/08/31 02:40:37;;;;;;;0.10;0.10;;;13.40;99.90;;;;;;5014774;28;20172;-82
2022/08/31 02:43:04;;;;;;;0.10;0.10;;;13.40;99.90;;;;;;5015282;28;20046;-82
2022/08/31 02:45:31;;;;;;;0.10;0.10;;;13.40;99.90;;;;;;5031113;28;20049;-82
2022/08/31 02:47:58;;;;;;;0.00;0.00;;;13.30;99.90;;;;;;5015449;28;20046;-82
2022/08/31 02:50:24;;;;;;;0.10;0.10;;;13.40;99.90;;;;;;4999300;28;20087;-82
2022/08/31 02:52:54;;;;;;;0.17;0.10;;;13.40;99.90;;;;;;5011591;28;20045;-82
2022/08/31 02:55:21;;;;;;;0.00;0.00;;;13.40;99.90;;;;;;5006043;28;20052;-82
2022/08/31 02:57:49;;;;;;;0.00;0.00;;;13.40;99.90;;;;;;5021165;28;20038;-82
2022/08/31 03:00:18;;;;;;;0.10;0.10;;;13.40;99.90;;;;;;5027845;28;20463;-81
2022/08/31 03:02:44;;;;;;;0.10;0.10;;;13.40;99.90;;;;;;5020465;28;20038;-82
2022/08/31 03:05:11;;;;;;;0.10;0.10;;;13.40;99.90;;;;;;4978937;28;20104;-82
2022/08/31 03:07:42;;;;;;;0.00;0.00;;;13.40;99.90;;;;;;4988131;28;20121;-83
2022/08/31 03:10:12;;;;;;;0.00;0.00;;;13.30;99.90;;;;;;4995277;28;20436;-84
2022/08/31 03:12:39;;;;;;;0.10;0.10;;;13.30;99.90;;;;;;5023160;28;20038;-83
2022/08/31 03:15:06;;;;;;;0.10;0.10;;;13.30;99.90;;;;;;5014784;28;20550;-82
2022/08/31 03:17:33;;;;;;;0.10;0.10;;;13.30;99.90;;;;;;4982579;28;20042;-83
2022/08/31 03:20:01;;;;;;;0.00;0.00;;;13.30;99.90;;;;;;5014653;28;20467;-83
2022/08/31 03:22:29;;;;;;;0.10;0.10;;;13.30;99.90;;;;;;5011214;28;20038;-83
2022/08/31 03:24:55;;;;;;;0.10;0.10;;;13.20;99.90;;;;;;5026140;28;20038;-84
2022/08/31 03:27:26;;;;;;;0.05;0.05;;;13.30;99.90;;;;;;4972662;28;20052;-82
2022/08/31 03:29:52;;;;;;;0.00;0.00;;;13.20;99.90;;;;;;5010756;28;20046;-82
2022/08/31 03:32:19;;;;;;;0.00;0.00;;;13.20;99.90;;;;;;4979757;28;20076;-82
2022/08/31 03:34:46;;;;;;;0.32;0.10;;;13.00;99.90;;;;;;4997972;28;20074;-83
2022/08/31 03:37:13;;;;;;;0.10;0.10;;;13.20;99.90;;;;;;5014333;28;20112;-82
2022/08/31 03:39:39;;;;;;;0.10;0.10;;;13.10;99.90;;;;;;4998141;28;20034;-83
2022/08/31 03:42:06;;;;;;;0.00;0.00;;;13.00;99.90;;;;;;4994663;28;20488;-82
2022/08/31 03:44:33;;;;;;;0.13;0.10;;;13.00;99.90;;;;;;4962825;28;20125;-83
2022/08/31 03:47:00;;;;;;;0.10;0.10;;;12.90;99.90;;;;;;5015861;28;20536;-82
2022/08/31 03:49:27;;;;;;;0.20;0.20;;;12.90;99.90;;;;;;4998114;28;20128;-83
2022/08/31 03:51:53;;;;;;;0.10;0.10;;;12.80;99.90;;;;;;4997798;28;20498;-82
2022/08/31 03:54:20;;;;;;;0.10;0.10;;;12.80;99.90;;;;;;4997750;28;20042;-83
2022/08/31 03:56:47;;;;;;;0.10;0.10;;;12.70;99.90;;;;;;4993927;28;20090;-82
2022/08/31 03:59:14;;;;;;;0.03;0.03;;;12.80;99.90;;;;;;4962880;28;20041;-82
2022/08/31 04:01:41;;;;;;;0.05;0.05;;;12.70;99.90;;;;;;4962550;28;20132;-82
2022/08/31 04:04:08;;;;;;;0.00;0.00;;;12.70;99.90;;;;;;4994176;28;20522;-83
2022/08/31 04:06:34;;;;;;;0.10;0.10;;;12.70;99.90;;;;;;4997767;28;20042;-83
2022/08/31 04:09:01;;;;;;;0.05;0.05;;;12.60;99.90;;;;;;4998055;28;20048;-83
2022/08/31 04:11:28;;;;;;;0.20;0.15;;;12.50;99.90;;;;;;4994375;28;20467;-83
2022/08/31 04:13:55;;;;;;;0.65;0.22;;;12.50;99.90;;;;;;5010332;28;20050;-83
2022/08/31 04:16:22;;;;;;;0.05;0.05;;;12.50;99.90;;;;;;5009814;28;20053;-82
2022/08/31 04:18:49;;;;;;;0.00;0.00;;;12.40;99.90;;;;;;5014804;28;20037;-82
2022/08/31 04:21:22;;;;;;;0.00;0.00;;;12.40;99.90;;;;;;4978329;28;20050;-82
2022/08/31 04:23:49;;;;;;;0.35;0.20;;;12.40;99.90;;;;;;5042335;28;20101;-83
2022/08/31 04:26:27;;;;;;;0.10;0.10;;;12.40;99.90;;;;;;5042246;28;20046;-82
2022/08/31 04:28:55;;;;;;;0.43;0.20;;;12.40;99.90;;;;;;5009730;28;20046;-83
2022/08/31 04:31:24;;;;;;;0.10;0.10;;;12.40;99.90;;;;;;5026110;28;20042;-83
2022/08/31 04:33:51;;;;;;;0.22;0.20;;;12.40;99.90;;;;;;5029206;28;20045;-82
2022/08/31 04:36:21;;;;;;;0.05;0.05;;;12.40;99.90;;;;;;5029572;28;20044;-82
2022/08/31 04:38:50;;;;;;;0.00;0.00;;;12.30;99.90;;;;;;5028940;28;20042;-82
2022/08/31 04:41:20;;;;;;;0.10;0.10;;;12.30;99.90;;;;;;5029270;28;20030;-82
2022/08/31 04:43:50;;;;;;;0.05;0.05;;;12.30;99.90;;;;;;5026010;28;20038;-83
2022/08/31 04:46:18;;;;;;;0.10;0.10;;;12.20;99.90;;;;;;5010013;28;20034;-83
2022/08/31 04:48:46;;;;;;;0.10;0.10;;;12.30;99.90;;;;;;5009695;28;20508;-84
2022/08/31 04:51:19;;;;;;;0.00;0.00;;;12.30;99.90;;;;;;5025956;28;20422;-83
2022/08/31 04:53:46;;;;;;;0.10;0.10;;;12.20;99.90;;;;;;5029513;28;20487;-83
2022/08/31 04:56:18;;;;;;;0.00;0.00;;;12.20;99.90;;;;;;4993537;28;20069;-83
2022/08/31 04:58:48;;;;;;;0.10;0.10;;;12.10;99.90;;;;;;5027084;28;20045;-83
2022/08/31 05:01:22;;;;;;;0.08;0.08;;;12.10;99.90;;;;;;5042763;28;20045;-83
2022/08/31 05:03:52;;;;;;;0.10;0.10;;;12.10;99.90;;;;;;5034126;28;20158;-83
2022/08/31 05:06:24;;;;;;;0.10;0.10;;;11.60;99.90;;;;;;5026124;28;20046;-83
2022/08/31 05:08:53;;;;;;;0.03;0.03;;;12.10;99.90;;;;;;5025929;28;20035;-83
2022/08/31 05:11:21;;;;;;;0.08;0.08;;;12.10;99.90;;;;;;4996665;28;20519;-83
2022/08/31 05:13:48;;;;;;;0.17;0.10;;;12.10;99.90;;;;;;5029215;28;20096;-82
2022/08/31 05:16:16;;;;;;;0.10;0.10;;;12.10;99.90;;;;;;5027752;28;20626;-82
2022/08/31 05:18:44;;;;;;;0.40;0.20;;;12.20;99.90;;;;;;4993971;28;20041;-82
2022/08/31 05:21:19;;;;;;;0.10;0.10;;;12.10;99.90;;;;;;4989695;28;20043;-82
2022/08/31 05:23:47;;;;;;;0.15;0.15;;;12.20;99.90;;;;;;5014661;28;20569;-83
2022/08/31 05:26:19;;;;;;;0.10;0.10;;;12.20;99.90;;;;;;5025688;28;20050;-82
2022/08/31 05:28:46;;;;;;;0.03;0.03;;;12.30;99.90;;;;;;5012625;28;20043;-83
2022/08/31 05:31:14;;;;;;;0.10;0.10;;;12.30;99.90;;;;;;5042907;28;20042;-82
2022/08/31 05:33:42;;;;;;;0.00;0.00;;;12.30;99.90;;;;;;5016914;28;20056;-83
2022/08/31 05:36:11;;;;;;;0.00;0.00;;;12.40;99.90;;;;;;5032540;28;20495;-83
2022/08/31 05:38:38;;;;;;;0.13;0.10;;;12.40;99.90;;;;;;5035377;28;20033;-81
2022/08/31 05:41:06;;;;;;;0.00;0.00;;;12.00;99.90;;;;;;5019392;28;20042;-83
2022/08/31 05:43:33;;;;;;;0.17;0.10;;;12.50;99.90;;;;;;5003848;28;20038;-82
2022/08/31 05:46:00;;;;;;;0.10;0.10;;;12.50;99.90;;;;;;5028855;28;20074;-82
2022/08/31 05:48:32;;;;;;;0.10;0.10;;;12.60;99.90;;;;;;5025241;28;20084;-83
2022/08/31 05:51:04;;;;;;;0.10;0.10;;;12.60;99.90;;;;;;5001533;28;20498;-82
2022/08/31 05:53:32;;;;;;;0.15;0.10;;;12.70;99.90;;;;;;5043836;28;20042;-82
2022/08/31 05:56:05;;;;;;;0.10;0.10;;;12.70;99.90;;;;;;4996627;28;20081;-83
2022/08/31 05:58:32;;;;;;;0.10;0.10;;;12.80;99.90;;;;;;5015737;28;20038;-81
2022/08/31 06:01:00;;;;;;;0.22;0.20;;;12.80;99.90;;;;;;4999820;28;20034;-82
2022/08/31 06:03:28;;;;;;;0.38;0.20;;;12.80;99.90;;;;;;5028185;28;20057;-83
2022/08/31 06:05:54;;;;;;;0.10;0.10;;;12.90;99.90;;;;;;4996236;28;20511;-82
2022/08/31 06:08:21;;;;;;;0.00;0.00;;;12.90;99.90;;;;;;5017500;28;20046;-83
2022/08/31 06:10:48;;;;;;;0.10;0.10;;;13.00;99.90;;;;;;5016239;28;20077;-83
2022/08/31 06:13:16;;;;;;;0.00;0.00;;;13.00;99.90;;;;;;5031880;28;20551;-82
2022/08/31 06:15:43;;;;;;;0.15;0.10;;;13.10;99.90;;;;;;5032206;28;20038;-83
2022/08/31 06:18:10;;;;;;;0.25;0.20;;;13.10;99.90;;;;;;5015368;28;20111;-82
2022/08/31 06:20:37;;;;;;;0.13;0.10;;;13.20;99.90;;;;;;5015593;28;20042;-83
2022/08/31 06:23:07;;;;;;;0.90;0.15;;;13.20;99.90;;;;;;4998947;28;20038;-81
2022/08/31 06:25:35;;;;;;;0.30;0.30;;;13.20;99.90;;;;;;5015631;28;20483;-83
2022/08/31 06:28:06;;;;;;;0.10;0.10;;;13.30;99.90;;;;;;5031344;28;20049;-82
2022/08/31 06:30:38;;;;;;;0.20;0.10;;;13.40;99.90;;;;;;5012833;28;20038;-82
2022/08/31 06:33:06;;;;;;;0.20;0.20;;;13.50;99.90;;;;;;5027791;28;20128;-83
2022/08/31 06:35:32;;;;;;;0.30;0.20;;;13.50;99.90;;;;;;5014306;28;20116;-81
2022/08/31 06:37:59;;;;;;;0.10;0.10;;;13.60;99.90;;;;;;5030653;28;20629;-81
2022/08/31 06:40:27;;;;;;;0.10;0.10;;;13.60;99.90;;;;;;4998867;28;20041;-81
2022/08/31 06:42:54;;;;;;;0.10;0.10;;;13.70;99.90;;;;;;4999392;28;20049;-84
2022/08/31 06:45:20;;;;;;;0.10;0.10;;;13.80;99.90;;;;;;5014772;28;20038;-81
2022/08/31 06:47:47;;;;;;;0.10;0.10;;;13.90;99.90;;;;;;5011921;28;20034;-84
2022/08/31 06:50:14;;;;;;;0.00;0.00;;;13.90;99.90;;;;;;4998950;28;20041;-82
2022/08/31 06:52:41;;;;;;;0.20;0.20;;;14.00;99.90;;;;;;5014994;28;20048;-81
2022/08/31 06:55:08;;;;;;;0.25;0.13;;;14.10;99.90;;;;;;5011270;28;20038;-81
2022/08/31 06:57:36;;;;;;;0.00;0.00;;;14.20;99.90;;;;;;5013175;28;20121;-81
2022/08/31 07:00:04;;;;;;;0.00;0.00;;;14.30;99.90;;;;;;4985685;28;20037;-81
2022/08/31 07:02:31;;;;;;;0.00;0.00;;;14.40;99.90;;;;;;5031377;28;20030;-83
2022/08/31 07:05:00;;;;;;;0.00;0.00;;;14.50;99.90;;;;;;5014312;28;20471;-83
2022/08/31 07:07:27;;;;;;;0.28;0.17;;;14.60;99.90;;;;;;4999168;28;20049;-81
2022/08/31 07:09:53;;;;;;;0.10;0.10;;;14.80;99.90;;;;;;5030688;28;20426;-81
2022/08/31 07:12:20;;;;;;;0.10;0.10;;;14.90;99.90;;;;;;5014022;28;20048;-81
2022/08/31 07:14:47;;;;;;;0.00;0.00;;;15.00;99.90;;;;;;5014502;28;20037;-82
2022/08/31 07:17:14;;;;;;;0.10;0.10;;;15.10;99.90;;;;;;5027499;28;20038;-81
2022/08/31 07:19:41;;;;;;;0.03;0.03;;;15.20;99.90;;;;;;5040110;28;20045;-81
2022/08/31 07:22:08;;;;;;;0.10;0.10;;;15.30;99.90;;;;;;5013986;28;20095;-81
2022/08/31 07:24:35;;;;;;;0.00;0.00;;;15.40;99.90;;;;;;5014759;28;20077;-84
2022/08/31 07:27:08;;;;;;;0.15;0.15;;;15.60;99.90;;;;;;5046834;28;20042;-86
2022/08/31 07:29:40;;;;;;;0.20;0.20;;;15.70;99.90;;;;;;5046195;28;20042;-85
2022/08/31 07:32:09;;;;;;;0.10;0.10;;;15.80;99.90;;;;;;5030048;28;20050;-84
2022/08/31 07:34:37;;;;;;;0.08;0.08;;;15.90;99.90;;;;;;5030383;28;20513;-80
2022/08/31 07:42:39;;;;;;;0.00;0.00;;;16.20;99.90;;;;;;5033144;28;20127;-80
2022/08/31 07:45:11;;;;;;;0.03;0.03;;;16.30;99.90;;;;;;5046436;28;20101;-85
2022/08/31 07:47:43;;;;;;;0.00;0.00;;;16.40;99.90;;;;;;5046308;28;20042;-84
2022/08/31 07:50:12;;;;;;;0.10;0.10;;;16.50;99.90;;;;;;5015172;28;20046;-84
2022/08/31 07:52:46;;;;;;;0.00;0.00;;;16.70;99.90;;;;;;5032847;28;20045;-84
2022/08/31 07:55:15;;;;;;;0.10;0.10;;;16.80;99.90;;;;;;5045488;28;20046;-81
2022/08/31 07:57:42;;;;;;;0.22;0.10;;;17.00;99.90;;;;;;5028773;28;20056;-80
2022/08/31 08:00:25;;;;;;;0.00;0.00;;;17.10;99.90;;;;;;5013761;28;20038;-80
2022/08/31 08:02:52;;;;;;;0.00;0.00;;;17.20;99.90;;;;;;5038256;28;20076;-80
2022/08/31 08:05:22;;;;;;;0.00;0.00;;;17.40;99.90;;;;;;5012003;28;20042;-82
2022/08/31 08:07:52;;;;;;;0.00;0.00;;;17.50;99.90;;;;;;5029633;28;20414;-84
2022/08/31 08:10:22;;;;;;;0.00;0.00;;;17.60;99.90;;;;;;5029579;28;20041;-82
2022/08/31 08:12:55;;;;;;;0.08;0.08;;;17.70;99.90;;;;;;5025985;28;20504;-83
2022/08/31 08:15:23;;;;;;;0.00;0.00;;;17.80;99.90;;;;;;5041042;28;20136;-81
2022/08/31 08:17:50;;;;;;;0.10;0.10;;;17.90;99.90;;;;;;5045673;28;20041;-82
2022/08/31 08:20:18;;;;;;;0.00;0.00;;;18.00;99.90;;;;;;5013087;28;20112;-82
2022/08/31 08:22:45;;;;;;;0.15;0.10;;;18.10;99.90;;;;;;5029214;28;20483;-82
2022/08/31 08:25:13;;;;;;;0.00;0.00;;;18.30;99.90;;;;;;5013224;28;20100;-85
2022/08/31 08:27:39;;;;;;;0.10;0.10;;;18.40;99.90;;;;;;5021353;28;20070;-82
2022/08/31 08:30:11;;;;;;;0.17;0.15;;;18.50;99.90;;;;;;5013408;28;20510;-81
2022/08/31 08:32:40;;;;;;;0.30;0.10;;;18.60;99.90;;;;;;5021171;28;20446;-81
2022/08/31 08:35:09;;;;;;;0.00;0.00;;;18.70;99.90;;;;;;5013336;28;20487;-81
2022/08/31 08:37:41;;;;;;;0.28;0.20;;;18.80;99.90;;;;;;5028906;28;20034;-81
2022/08/31 08:40:14;;;;;;;0.17;0.10;;;18.90;99.90;;;;;;5027811;28;20041;-85
2022/08/31 08:42:41;;;;;;;0.00;0.00;;;19.00;99.90;;;;;;5027457;28;20034;-82
2022/08/31 08:45:09;;;;;;;0.10;0.10;;;19.10;99.90;;;;;;5029682;28;20038;-80
2022/08/31 08:47:38;;;;;;;0.25;0.10;;;19.20;99.90;;;;;;5023896;28;20492;-89
2022/08/31 08:50:09;;;;;;;0.13;0.10;;;19.30;99.90;;;;;;5045666;28;20507;-86
2022/08/31 08:52:42;;;;;;;0.00;0.00;;;19.40;99.90;;;;;;5013149;28;20041;-79
2022/08/31 08:55:17;;;;;;;0.00;0.00;;;19.50;99.90;;;;;;5037732;28;20038;-81
2022/08/31 08:57:45;;;;;;;;;;;19.60;99.90;;;;;;5042289;28;20041;-82
2022/08/31 09:00:17;;;;;;;0.10;0.10;;;19.60;99.90;;;;;;5029542;28;20007;-80
2022/08/31 09:03:10;;;;;;;0.00;0.00;;;19.70;99.90;;;;;;5031193;28;20038;-86
2022/08/31 09:06:08;;;;;;;0.10;0.10;;;19.70;99.90;;;;;;5043920;28;20046;-80
2022/08/31 09:08:58;;;;;;;0.10;0.10;;;19.80;99.90;;;;;;5032937;28;20041;-86
2022/08/31 09:11:45;;;;;;;0.00;0.00;;;19.90;99.90;;;;;;5027836;28;20048;-84
2022/08/31 09:14:47;;;;;;;0.00;0.00;;;19.90;99.90;;;;;;5029820;28;21649;-80
2022/08/31 09:17:35;;;;;;;0.00;0.00;;;19.90;99.90;;;;;;4956145;29;20456;-82
2022/08/31 09:20:04;;;;;;;0.10;0.10;;;20.10;99.90;;;;;;5017295;28;20479;-82
2022/08/31 09:22:43;;;;;;;0.00;0.00;;;20.20;99.90;;;;;;5015582;28;20037;-83
2022/08/31 09:25:10;;;;;;;0.10;0.10;;;20.20;99.90;;;;;;5026747;28;20049;-83
2022/08/31 09:27:56;;;;;;;0.00;0.00;;;20.20;99.90;;;;;;5016136;28;20046;-81
2022/08/31 09:30:43;;;;;;;0.00;0.00;;;20.20;99.90;;;;;;5017691;28;20046;-82
2022/08/31 09:33:24;;;;;;;0.05;0.05;;;20.30;99.90;;;;;;5017386;28;20041;-81
2022/08/31 09:36:12;;;;;;;0.10;0.10;;;20.20;99.90;;;;;;5041854;28;20578;-83
2022/08/31 09:38:40;;;;;;;0.10;0.10;;;20.30;99.90;;;;;;5028803;28;20496;-82
2022/08/31 09:41:32;;;;;;;0.20;0.10;;;20.40;99.90;;;;;;4997283;28;20034;-84
2022/08/31 09:44:34;;;;;;;0.10;0.00;;;20.60;99.90;;;;;;5028384;28;20562;-82
2022/08/31 09:47:13;;;;;;;0.00;0.00;;;20.70;99.90;;;;;;5015590;28;20061;-81
2022/08/31 09:49:54;;;;;;;0.00;0.00;;;20.80;99.90;;;;;;5032177;28;20049;-83
2022/08/31 09:55:20;;;;;;;0.00;0.00;;;21.00;99.90;;;;;;5040428;28;20561;-82
2022/08/31 09:57:57;;;;;;;0.20;0.10;;;21.10;99.90;;;;;;5021337;28;20121;-83
2022/08/31 10:00:38;;;;;;;0.17;0.10;;;21.20;99.90;;;;;;5032441;28;20042;-81
2022/08/31 10:03:21;;;;;;;0.00;0.00;;;21.40;99.90;;;;;;5032225;28;20050;-86
2022/08/31 10:05:50;;;;;;;0.20;0.10;;;21.40;99.90;;;;;;5016229;28;20121;-80
2022/08/31 10:08:32;;;;;;;0.10;0.10;;;21.40;99.90;;;;;;4996451;28;20049;-80
2022/08/31 10:11:10;;;;;;;0.00;0.00;;;21.40;99.90;;;;;;5017100;28;20128;-88
2022/08/31 10:14:03;;;;;;;0.10;0.10;;;21.50;99.90;;;;;;5012473;28;20046;-88
2022/08/31 10:16:35;;;;;;;0.10;0.10;;;21.60;99.90;;;;;;5009062;28;20873;-83
2022/08/31 10:19:19;;;;;;;0.00;0.00;;;21.60;99.90;;;;;;5013320;28;20053;-85
2022/08/31 10:21:52;;;;;;;0.10;0.10;;;21.70;99.50;;;;;;5012169;28;20096;-86
2022/08/31 10:24:43;;;;;;;0.10;0.10;;;21.80;99.90;;;;;;4998166;28;20150;-83
2022/08/31 10:27:19;;;;;;;0.00;0.00;;;21.90;99.90;;;;;;5012904;28;20045;-86
2022/08/31 10:30:05;;;;;;;0.00;0.00;;;22.00;99.10;;;;;;5012860;28;20117;-85
2022/08/31 10:33:06;;;;;;;0.00;0.00;;;22.10;98.70;;;;;;5010769;28;20068;-86
2022/08/31 10:35:56;;;;;;;0.00;0.00;;;22.10;97.90;;;;;;5007794;28;20420;-82
2022/08/31 10:38:39;;;;;;;0.00;0.00;;;22.20;99.00;;;;;;5014871;28;20115;-84
2022/08/31 10:41:17;;;;;;;0.20;0.10;;;22.40;98.40;;;;;;5025257;28;20125;-83
2022/08/31 10:44:16;;;;;;;0.00;0.00;;;22.40;99.00;;;;;;5014822;28;20478;-84
2022/08/31 10:46:44;;;;;;;0.10;0.10;;;22.50;97.20;;;;;;5015163;28;20038;-84
2022/08/31 10:49:11;;;;;;;0.10;0.10;;;22.50;97.60;;;;;;4983842;28;20040;-87
2022/08/31 10:52:09;;;;;;;0.08;0.08;;;22.50;98.00;;;;;;5014829;28;20041;-84
2022/08/31 10:54:48;;;;;;;0.17;0.10;;;22.60;97.60;;;;;;5014072;28;20038;-86
2022/08/31 10:57:30;;;;;;;0.10;0.08;;;22.60;97.60;;;;;;5014546;28;20041;-83
2022/08/31 11:00:40;;;;;;;0.40;0.20;;;22.60;98.20;;;;;;5015476;28;20048;-89
2022/08/31 11:03:12;;;;;;;0.32;0.17;;;22.60;97.20;;;;;;5024456;28;20038;-92
2022/08/31 11:05:54;;;;;;;0.10;0.10;;;22.60;96.10;;;;;;4995444;28;20120;-87
2022/08/31 11:08:33;;;;;;;0.10;0.10;;;22.50;96.10;;;;;;5014578;28;20048;-86
2022/08/31 11:11:07;;;;;;;0.10;0.10;;;22.50;96.70;;;;;;5013520;28;20042;-83
2022/08/31 11:14:06;;;;;;;0.00;0.00;;;22.50;96.90;;;;;;5013657;28;20487;-83
2022/08/31 11:16:52;;;;;;;0.00;0.00;;;22.50;96.30;;;;;;5029595;28;20176;-83
2022/08/31 11:19:49;;;;;;;0.10;0.10;;;22.50;96.30;;;;;;5039559;28;20141;-83
2022/08/31 11:22:40;;;;;;;0.10;0.10;;;22.50;96.10;;;;;;5005765;28;20034;-83
2022/08/31 11:26:08;;;;;;;0.10;0.10;;;22.40;95.80;;;;;;5007157;28;20046;-86
2022/08/31 11:28:50;;;;;;;0.03;0.03;;;22.50;95.60;;;;;;4969515;28;20050;-86
2022/08/31 11:31:23;;;;;;;0.85;0.43;;;22.50;95.90;;;;;;5013215;28;20065;-84
2022/08/31 11:33:55;;;;;;;1.58;0.20;;;22.50;96.00;;;;;;5013598;28;20466;-86
2022/08/31 11:36:42;;;;;;;0.10;0.10;;;22.50;96.00;;;;;;5023024;28;20491;-83
2022/08/31 11:39:09;;;;;;;0.00;0.00;;;22.60;94.80;;;;;;5028174;28;20038;-87
2022/08/31 11:41:46;;;;;;;0.10;0.10;;;22.70;95.40;;;;;;5014076;28;20121;-85
2022/08/31 11:44:28;;;;;;;2.75;0.10;;;22.70;95.30;;;;;;5012698;28;20049;-83
2022/08/31 11:47:26;;;;;;;0.00;0.00;;;22.70;94.60;;;;;;5012887;28;20081;-86
2022/08/31 11:50:03;;;;;;;0.05;0.05;;;22.70;94.70;;;;;;5012225;28;20103;-83
2022/08/31 11:52:37;;;;;;;0.10;0.10;;;22.60;94.30;;;;;;5029949;28;20068;-83
2022/08/31 11:55:12;;;;;;;0.10;0.10;;;22.70;94.60;;;;;;5026020;28;20129;-86
2022/08/31 11:58:10;;;;;;;0.10;0.10;;;22.80;94.40;;;;;;5007211;28;20048;-86
2022/08/31 12:00:40;;;;;;;0.00;0.00;;;22.80;93.90;;;;;;5029800;28;20124;-82
2022/08/31 12:03:08;;;;;;;0.10;0.10;;;22.80;94.10;;;;;;5013816;28;20502;-83
2022/08/31 12:05:49;;;;;;;0.20;0.20;;;22.80;94.00;;;;;;4982089;28;20493;-80
2022/08/31 12:08:17;;;;;;;1.00;0.45;;;22.80;93.80;;;;;;5009936;28;20046;-83
2022/08/31 12:11:04;;;;;;;0.10;0.08;;;22.80;94.20;;;;;;5011533;28;20046;-84
2022/08/31 12:13:48;;;;;;;0.13;0.13;;;22.80;93.40;;;;;;5006475;28;20046;-83
2022/08/31 12:16:29;;;;;;;0.00;0.00;;;22.80;93.70;;;;;;5010022;28;20034;-80
2022/08/31 12:25:43;;;;;;;0.75;0.15;;;23.00;94.30;;;;;;5023630;28;20100;-80
2022/08/31 12:28:46;;;;;;;0.10;0.10;;;23.00;93.80;;;;;;4996421;28;20077;-80
2022/08/31 12:31:16;;;;;;;0.15;0.15;;;23.10;94.00;;;;;;5009132;28;20407;-85
2022/08/31 12:34:00;;;;;;;0.32;0.20;;;23.00;94.40;;;;;;5008878;28;20074;-80
2022/08/31 12:36:30;;;;;;;0.10;0.08;;;23.10;93.80;;;;;;5009035;28;20563;-85
2022/08/31 12:39:08;;;;;;;0.10;0.10;;;23.10;93.90;;;;;;4993630;28;20125;-85
2022/08/31 12:41:55;;;;;;;0.17;0.17;;;23.20;93.20;;;;;;5004302;28;20116;-85
2022/08/31 12:44:26;;;;;;;0.03;0.03;;;23.20;93.80;;;;;;5028870;28;20046;-80
2022/08/31 12:47:10;;;;;;;0.10;0.10;;;23.10;93.80;;;;;;5028904;28;20072;-80
2022/08/31 12:49:36;;;;;;;0.17;0.10;;;23.10;93.80;;;;;;5028161;28;20112;-80
2022/08/31 12:52:22;;;;;;;0.03;0.03;;;23.10;93.50;;;;;;5012703;28;20518;-80
2022/08/31 12:55:07;;;;;;;;;;;23.10;93.40;;;;;;5012497;28;20045;-84
2022/08/31 12:57:43;;;;;;;0.05;0.05;;;23.10;93.30;;;;;;5028961;28;20383;-80
2022/08/31 13:00:35;;;;;;;0.20;0.10;;;23.10;93.80;;;;;;5012242;28;20388;-80
2022/08/31 13:03:10;;;;;;;0.10;0.10;;;23.10;93.00;;;;;;5028050;28;20057;-80
2022/08/31 13:05:37;;;;;;;0.00;0.00;;;23.10;94.00;;;;;;5028960;28;20057;-84
2022/08/31 13:08:24;;;;;;;0.10;0.10;;;23.10;93.70;;;;;;4996483;28;20045;-84
2022/08/31 13:10:51;;;;;;;0.10;0.10;;;23.00;92.40;;;;;;5008421;28;20507;-80
2022/08/31 13:13:25;;;;;;;0.35;0.20;;;22.90;93.40;;;;;;4998662;28;20100;-85
2022/08/31 13:15:59;;;;;;;0.10;0.10;;;23.00;93.70;;;;;;4993339;28;20053;-80
2022/08/31 13:18:28;;;;;;;0.10;0.08;;;22.90;93.20;;;;;;5021921;28;20042;-84
2022/08/31 13:21:04;;;;;;;0.10;0.10;;;22.90;93.00;;;;;;5003656;28;20046;-85
2022/08/31 13:23:37;;;;;;;0.10;0.10;;;22.90;93.20;;;;;;5014932;28;20510;-80
2022/08/31 13:26:19;;;;;;;0.15;0.15;;;22.90;93.50;;;;;;5012452;28;20041;-84
2022/08/31 13:28:52;;;;;;;0.10;0.10;;;22.90;92.90;;;;;;5011514;28;20475;-80
2022/08/31 13:31:25;;;;;;;0.10;0.10;;;22.90;93.40;;;;;;5017710;28;20049;-79
2022/08/31 13:33:55;;;;;;;0.10;0.10;;;22.90;93.20;;;;;;5012325;28;20053;-83